createdAt,value
2019-02-05T00:01:02.942Z,13.03
2019-02-05T00:03:36.301Z,13.23
2019-02-05T00:06:11.162Z,15.10
2019-02-05T00:08:44.631Z,14.67
2019-02-05T00:11:17.950Z,12.53
2019-02-05T00:13:51.217Z,15.73
2019-02-05T00:16:24.502Z,15.43
2019-02-05T00:18:57.795Z,14.30
2019-02-05T00:21:31.091Z,15.83
2019-02-05T00:24:04.986Z,13.50
2019-02-05T00:26:38.839Z,11.77
2019-02-05T00:29:12.109Z,13.57
2019-02-05T00:31:45.410Z,14.80
2019-02-05T00:34:18.688Z,13.53
2019-02-05T00:36:52.001Z,13.83
2019-02-05T00:39:25.305Z,14.27
2019-02-05T00:41:58.974Z,12.97
2019-02-05T00:44:32.241Z,12.93
2019-02-05T00:47:06.199Z,12.10
2019-02-05T00:49:39.507Z,13.60
2019-02-05T00:52:12.786Z,13.00
2019-02-05T00:54:46.093Z,14.50
2019-02-05T00:57:19.409Z,12.17
2019-02-05T00:59:52.705Z,14.30
2019-02-05T01:02:25.989Z,14.47
2019-02-05T01:04:59.543Z,15.10
2019-02-05T01:07:32.917Z,13.13
2019-02-05T01:10:08.335Z,17.13
2019-02-05T01:12:41.731Z,13.67
2019-02-05T01:15:20.673Z,13.23
2019-02-05T01:17:54.104Z,15.13
2019-02-05T01:20:27.443Z,16.53
2019-02-05T01:23:00.731Z,13.47
2019-02-05T01:25:34.365Z,12.27
2019-02-05T01:28:07.775Z,14.23
2019-02-05T01:30:41.043Z,13.00
2019-02-05T01:33:14.352Z,13.07
2019-02-05T01:35:47.612Z,14.37
2019-02-05T01:38:20.920Z,15.53
2019-02-05T01:40:54.264Z,13.53
2019-02-05T01:43:27.565Z,16.93
2019-02-05T01:46:00.851Z,14.70
2019-02-05T01:48:34.339Z,13.47
2019-02-05T01:51:07.610Z,13.80
2019-02-05T01:53:41.985Z,17.67
2019-02-05T01:56:15.263Z,13.97
2019-02-05T01:58:48.565Z,15.47
2019-02-05T02:01:21.859Z,13.57
2019-02-05T02:03:55.173Z,16.33
2019-02-05T02:06:28.603Z,15.47
2019-02-05T02:09:01.852Z,14.53
2019-02-05T02:11:35.481Z,16.50
2019-02-05T02:14:08.757Z,14.47
2019-02-05T02:16:42.068Z,18.53
2019-02-05T02:19:15.358Z,15.73
2019-02-05T02:21:50.225Z,21.93
2019-02-05T02:24:23.511Z,18.33
2019-02-05T02:26:56.872Z,18.30
2019-02-05T02:29:30.171Z,20.83
2019-02-05T02:32:03.548Z,17.87
2019-02-05T02:34:36.821Z,18.90
2019-02-05T02:37:10.124Z,17.17
2019-02-05T02:39:44.603Z,19.03
2019-02-05T02:42:17.901Z,16.97
2019-02-05T02:44:51.826Z,17.20
2019-02-05T02:47:27.756Z,20.73
2019-02-05T02:50:00.227Z,22.03
2019-02-05T02:52:33.530Z,17.67
2019-02-05T02:55:07.725Z,19.27
2019-02-05T02:57:41.981Z,19.00
2019-02-05T03:00:18.442Z,19.87
2019-02-05T03:02:52.024Z,17.90
2019-02-05T03:05:25.473Z,19.00
2019-02-05T03:07:58.763Z,18.77
2019-02-05T03:10:32.147Z,18.20
2019-02-05T03:13:05.471Z,22.37
2019-02-05T03:15:38.761Z,19.27
2019-02-05T03:18:12.062Z,20.40
2019-02-05T03:20:45.360Z,19.87
2019-02-05T03:23:18.720Z,20.70
2019-02-05T03:25:52.116Z,21.70
2019-02-05T03:28:25.413Z,20.87
2019-02-05T03:30:58.735Z,20.03
2019-02-05T03:33:32.048Z,19.43
2019-02-05T03:36:05.602Z,18.83
2019-02-05T03:38:38.960Z,18.53
2019-02-05T03:41:13.807Z,19.23
2019-02-05T03:43:47.176Z,20.07
2019-02-05T03:46:21.056Z,19.97
2019-02-05T03:48:55.233Z,20.80
2019-02-05T03:51:31.680Z,20.83
2019-02-05T03:54:29.005Z,20.37
2019-02-05T03:57:11.333Z,20.80
2019-02-05T03:59:56.710Z,21.27
2019-02-05T04:02:42.217Z,19.37
2019-02-05T04:05:34.884Z,20.90
2019-02-05T04:08:27.693Z,25.23
2019-02-05T04:11:20.581Z,19.47
2019-02-05T04:14:00.040Z,22.30
2019-02-05T04:16:51.632Z,20.03
2019-02-05T04:19:33.864Z,20.50
2019-02-05T04:22:27.160Z,21.70
2019-02-05T04:25:35.821Z,19.03
2019-02-05T04:28:34.876Z,20.53
2019-02-05T04:31:17.209Z,25.17
2019-02-05T04:33:59.478Z,23.13
2019-02-05T04:36:44.488Z,23.70
2019-02-05T04:39:43.835Z,24.20
2019-02-05T04:42:20.311Z,29.87
2019-02-05T04:45:08.798Z,23.27
2019-02-05T04:48:01.731Z,24.17
2019-02-05T04:50:38.585Z,27.03
2019-02-05T04:53:30.148Z,24.93
2019-02-05T04:56:18.430Z,21.33
2019-02-05T04:58:57.749Z,28.63
2019-02-05T05:01:34.221Z,21.73
2019-02-05T05:04:22.374Z,23.40
2019-02-05T05:07:10.675Z,23.97
2019-02-05T05:09:55.426Z,28.23
2019-02-05T05:12:29.071Z,27.00
2019-02-05T05:15:02.384Z,23.70
2019-02-05T05:17:35.754Z,25.97
2019-02-05T05:20:10.970Z,28.93
2019-02-05T05:22:45.038Z,26.90
2019-02-05T05:25:20.104Z,27.27
2019-02-05T05:27:55.025Z,23.77
2019-02-05T05:30:28.434Z,26.43
2019-02-05T05:33:02.985Z,25.10
2019-02-05T05:35:43.433Z,22.90
2019-02-05T05:38:11.532Z,28.20
2019-02-05T05:40:44.885Z,28.33
2019-02-05T05:43:18.192Z,26.87
2019-02-05T05:45:51.475Z,27.50
2019-02-05T05:48:24.812Z,24.83
2019-02-05T05:50:58.174Z,29.53
2019-02-05T05:53:31.479Z,31.73
2019-02-05T05:56:04.853Z,29.50
2019-02-05T05:58:38.241Z,28.97
2019-02-05T06:01:11.535Z,25.53
2019-02-05T06:03:44.835Z,32.07
2019-02-05T06:06:18.101Z,33.10
2019-02-05T06:08:51.446Z,31.13
2019-02-05T06:11:25.170Z,32.00
2019-02-05T06:13:58.463Z,33.93
2019-02-05T06:16:31.775Z,32.83
2019-02-05T06:19:05.164Z,32.47
2019-02-05T06:21:38.477Z,31.03
2019-02-05T06:24:11.865Z,31.27
2019-02-05T06:26:45.224Z,32.40
2019-02-05T06:29:18.556Z,30.23
2019-02-05T06:31:51.844Z,32.60
2019-02-05T06:34:25.244Z,33.23
2019-02-05T06:36:58.542Z,33.83
2019-02-05T06:39:31.836Z,39.80
2019-02-05T06:42:05.191Z,37.63
2019-02-05T06:44:38.477Z,38.73
2019-02-05T06:47:11.952Z,36.40
2019-02-05T06:49:45.340Z,37.80
2019-02-05T06:52:18.638Z,32.50
2019-02-05T06:54:51.932Z,35.53
2019-02-05T06:57:25.226Z,33.07
2019-02-05T06:59:58.554Z,30.73
2019-02-05T07:02:31.855Z,32.87
2019-02-05T07:05:08.570Z,31.10
2019-02-05T07:07:41.995Z,34.00
2019-02-05T07:10:18.704Z,33.27
2019-02-05T07:12:52.049Z,31.40
2019-02-05T07:15:25.385Z,32.00
2019-02-05T07:17:58.655Z,32.37
2019-02-05T07:20:31.951Z,44.97
2019-02-05T07:23:05.305Z,41.37
2019-02-05T07:25:38.609Z,43.20
2019-02-05T07:28:11.895Z,40.77
2019-02-05T07:30:45.209Z,58.53
2019-02-05T07:33:18.495Z,49.97
2019-02-05T07:35:51.786Z,44.27
2019-02-05T07:38:25.079Z,32.67
2019-02-05T07:40:58.433Z,30.30
2019-02-05T07:43:31.702Z,31.13
2019-02-05T07:46:05.393Z,28.87
2019-02-05T07:48:39.056Z,29.37
2019-02-05T07:51:12.925Z,28.63
2019-02-05T07:53:47.030Z,27.30
2019-02-05T07:56:20.331Z,28.77
2019-02-05T07:58:53.608Z,26.77
2019-02-05T08:01:26.917Z,28.60
2019-02-05T08:04:00.254Z,27.50
2019-02-05T08:06:33.557Z,27.80
2019-02-05T08:09:08.859Z,25.53
2019-02-05T08:11:42.525Z,29.70
2019-02-05T08:14:15.962Z,29.77
2019-02-05T08:16:49.253Z,28.93
2019-02-05T08:19:22.526Z,29.50
2019-02-05T08:21:55.827Z,28.13
2019-02-05T08:24:29.113Z,31.67
2019-02-05T08:27:02.411Z,29.97
2019-02-05T08:29:35.714Z,26.57
2019-02-05T08:32:09.024Z,27.80
2019-02-05T08:34:42.301Z,28.07
2019-02-05T08:37:15.604Z,27.90
2019-02-05T08:39:48.881Z,29.13
2019-02-05T08:42:22.169Z,28.60
2019-02-05T08:44:56.631Z,26.10
2019-02-05T08:47:29.940Z,29.93
2019-02-05T08:50:05.895Z,29.50
2019-02-05T08:52:39.188Z,28.83
2019-02-05T08:55:15.121Z,28.37
2019-02-05T08:57:50.561Z,27.50
2019-02-05T09:00:25.900Z,26.67
2019-02-05T09:02:59.262Z,23.97
2019-02-05T09:05:32.685Z,27.07
2019-02-05T09:08:06.113Z,26.67
2019-02-05T09:10:41.365Z,25.97
2019-02-05T09:13:14.934Z,28.63
2019-02-05T09:15:48.213Z,28.03
2019-02-05T09:18:21.502Z,29.57
2019-02-05T09:20:54.763Z,24.93
2019-02-05T09:23:28.130Z,25.70
2019-02-05T09:26:01.782Z,24.00
2019-02-05T09:28:35.090Z,25.13
2019-02-05T09:31:08.485Z,25.07
2019-02-05T09:33:41.845Z,24.53
2019-02-05T09:36:15.149Z,25.27
2019-02-05T09:38:48.410Z,25.57
2019-02-05T09:41:21.709Z,24.60
2019-02-05T09:43:55.043Z,26.03
2019-02-05T09:46:28.349Z,24.73
2019-02-05T09:49:01.625Z,22.50
2019-02-05T09:51:34.913Z,23.77
2019-02-05T09:54:08.180Z,21.80
2019-02-05T09:56:41.477Z,25.33
2019-02-05T09:59:14.760Z,27.40
2019-02-05T10:01:48.328Z,23.57
2019-02-05T10:04:21.637Z,25.43
2019-02-05T10:06:55.403Z,24.27
2019-02-05T10:09:28.767Z,29.67
2019-02-05T10:12:02.060Z,26.83
2019-02-05T10:14:35.893Z,26.57
2019-02-05T10:17:09.194Z,25.13
2019-02-05T10:19:42.479Z,25.37
2019-02-05T10:22:15.886Z,26.33
2019-02-05T10:24:49.915Z,23.50
2019-02-05T10:27:23.462Z,25.03
2019-02-05T10:29:59.528Z,21.63
2019-02-05T10:32:31.790Z,26.97
2019-02-05T10:35:07.522Z,24.00
2019-02-05T10:37:41.082Z,24.10
2019-02-05T10:40:14.601Z,28.50
2019-02-05T10:42:47.993Z,22.93
2019-02-05T10:45:23.371Z,23.97
2019-02-05T10:47:57.550Z,25.50
2019-02-05T10:50:31.115Z,26.97
2019-02-05T10:53:04.685Z,25.47
2019-02-05T10:55:37.966Z,21.77
2019-02-05T10:58:12.227Z,24.23
2019-02-05T11:00:45.508Z,22.10
2019-02-05T11:03:18.873Z,24.77
2019-02-05T11:05:52.161Z,23.43
2019-02-05T11:08:25.628Z,25.70
2019-02-05T11:10:58.930Z,24.40
2019-02-05T11:13:32.247Z,23.50
2019-02-05T11:16:05.510Z,23.33
2019-02-05T11:18:38.823Z,24.63
2019-02-05T11:21:12.203Z,25.10
2019-02-05T11:23:45.487Z,25.00
2019-02-05T11:26:19.220Z,24.93
2019-02-05T11:28:52.524Z,24.10
2019-02-05T11:31:25.830Z,22.83
2019-02-05T11:33:59.130Z,28.13
2019-02-05T11:36:32.454Z,21.23
2019-02-05T11:39:09.196Z,29.93
2019-02-05T11:41:42.474Z,26.20
2019-02-05T11:44:15.768Z,50.13
2019-02-05T11:46:49.119Z,31.10
2019-02-05T11:49:22.468Z,61.30
2019-02-05T11:51:55.831Z,67.23
2019-02-05T11:54:29.142Z,27.17
2019-02-05T11:57:02.421Z,27.03
2019-02-05T11:59:35.789Z,22.57
2019-02-05T12:02:09.634Z,21.40
2019-02-05T12:04:42.960Z,19.97
2019-02-05T12:07:16.250Z,20.10
2019-02-05T12:09:49.662Z,22.80
2019-02-05T12:12:22.942Z,22.37
2019-02-05T12:14:56.616Z,22.23
2019-02-05T12:17:31.026Z,20.23
2019-02-05T12:20:07.959Z,20.37
2019-02-05T12:22:41.298Z,20.27
2019-02-05T12:25:17.511Z,19.70
2019-02-05T12:27:50.891Z,21.90
2019-02-05T12:30:26.804Z,21.40
2019-02-05T12:33:01.757Z,19.73
2019-02-05T12:35:35.490Z,19.20
2019-02-05T12:38:09.698Z,21.47
2019-02-05T12:40:43.069Z,19.87
2019-02-05T12:43:16.429Z,18.60
2019-02-05T12:45:49.746Z,18.63
2019-02-05T12:48:23.085Z,19.43
2019-02-05T12:50:56.443Z,23.47
2019-02-05T12:53:29.816Z,20.93
2019-02-05T12:56:03.088Z,20.13
2019-02-05T12:58:36.395Z,20.63
2019-02-05T13:01:09.739Z,18.87
2019-02-05T13:03:43.041Z,19.77
2019-02-05T13:06:16.340Z,20.80
2019-02-05T13:08:49.644Z,19.23
2019-02-05T13:11:22.933Z,20.47
2019-02-05T13:13:56.232Z,18.60
2019-02-05T13:16:29.550Z,18.33
2019-02-05T13:19:03.000Z,19.83
2019-02-05T13:21:36.303Z,17.57
2019-02-05T13:24:09.998Z,19.23
2019-02-05T13:26:43.300Z,20.23
2019-02-05T13:29:16.616Z,18.73
2019-02-05T13:31:49.929Z,17.70
2019-02-05T13:34:23.245Z,20.93
2019-02-05T13:36:56.530Z,20.20
2019-02-05T13:39:29.828Z,17.30
2019-02-05T13:42:03.133Z,18.23
2019-02-05T13:44:36.455Z,16.87
2019-02-05T13:47:09.978Z,16.17
2019-02-05T13:49:43.300Z,15.67
2019-02-05T13:52:16.599Z,19.90
2019-02-05T13:54:49.917Z,16.07
2019-02-05T13:57:23.242Z,15.80
2019-02-05T13:59:56.543Z,16.27
2019-02-05T14:02:29.871Z,17.20
2019-02-05T14:05:03.746Z,14.63
2019-02-05T14:07:37.036Z,14.63
2019-02-05T14:10:28.723Z,16.87
2019-02-05T14:13:02.015Z,17.60
2019-02-05T14:15:43.569Z,18.03
2019-02-05T14:18:16.860Z,18.50
2019-02-05T14:20:50.178Z,16.97
2019-02-05T14:23:23.474Z,16.97
2019-02-05T14:25:59.638Z,21.80
2019-02-05T14:28:31.970Z,16.67
2019-02-05T14:31:05.292Z,17.80
2019-02-05T14:33:38.576Z,18.27
2019-02-05T14:36:11.915Z,17.53
2019-02-05T14:38:45.266Z,16.80
2019-02-05T14:41:18.597Z,17.30
2019-02-05T14:43:51.941Z,15.20
2019-02-05T14:46:25.272Z,16.63
2019-02-05T14:48:58.595Z,17.50
2019-02-05T14:51:32.194Z,18.20
2019-02-05T14:54:05.603Z,18.73
2019-02-05T14:56:38.882Z,16.40
2019-02-05T14:59:12.268Z,20.73
2019-02-05T15:01:45.582Z,19.30
2019-02-05T15:04:18.909Z,20.27
2019-02-05T15:06:53.810Z,18.03
2019-02-05T15:09:27.147Z,20.13
2019-02-05T15:12:00.420Z,22.13
2019-02-05T15:14:33.723Z,21.47
2019-02-05T15:17:07.038Z,19.90
2019-02-05T15:19:40.358Z,19.53
2019-02-05T15:22:13.623Z,18.13
2019-02-05T15:24:47.438Z,19.27
2019-02-05T15:27:20.747Z,19.13
2019-02-05T15:29:54.104Z,21.80
2019-02-05T15:32:47.007Z,19.87
2019-02-05T15:35:20.325Z,18.57
2019-02-05T15:37:53.632Z,20.47
2019-02-05T15:40:27.015Z,22.37
2019-02-05T15:43:00.288Z,19.30
2019-02-05T15:45:33.607Z,19.87
2019-02-05T15:48:06.972Z,18.67
2019-02-05T15:50:40.295Z,26.90
2019-02-05T15:53:15.228Z,21.43
2019-02-05T15:55:48.889Z,18.57
2019-02-05T15:58:22.219Z,18.87
2019-02-05T16:00:55.631Z,20.10
2019-02-05T16:03:28.904Z,20.90
2019-02-05T16:06:02.223Z,17.30
2019-02-05T16:08:35.619Z,20.63
2019-02-05T16:11:09.010Z,19.20
2019-02-05T16:13:42.353Z,23.03
2019-02-05T16:16:15.895Z,23.37
2019-02-05T16:18:49.483Z,19.20
2019-02-05T16:21:22.803Z,17.30
2019-02-05T16:23:58.116Z,16.50
2019-02-05T16:26:31.208Z,16.93
2019-02-05T16:29:04.610Z,17.13
2019-02-05T16:31:37.983Z,19.30
2019-02-05T16:34:11.274Z,19.63
2019-02-05T16:36:44.613Z,17.33
2019-02-05T16:39:17.928Z,19.13
2019-02-05T16:41:51.626Z,20.70
2019-02-05T16:44:24.939Z,16.37
2019-02-05T16:46:58.406Z,17.63
2019-02-05T16:49:31.736Z,17.93
2019-02-05T16:52:05.146Z,17.77
2019-02-05T16:54:39.300Z,16.50
2019-02-05T16:57:12.577Z,17.03
2019-02-05T16:59:45.965Z,17.60
2019-02-05T17:02:28.563Z,18.23
2019-02-05T17:04:54.289Z,22.83
2019-02-05T17:07:27.610Z,17.47
2019-02-05T17:10:00.930Z,19.57
2019-02-05T17:12:34.244Z,25.33
2019-02-05T17:15:10.972Z,24.27
2019-02-05T17:17:44.285Z,24.13
2019-02-05T17:20:20.482Z,24.17
2019-02-05T17:22:53.879Z,28.83
2019-02-05T17:25:28.916Z,28.10
2019-02-05T17:28:04.077Z,31.47
2019-02-05T17:30:39.548Z,29.87
2019-02-05T17:33:12.916Z,30.97
2019-02-05T17:35:46.266Z,33.77
2019-02-05T17:38:19.604Z,31.93
2019-02-05T17:40:54.660Z,28.00
2019-02-05T17:43:28.175Z,31.53
2019-02-05T17:46:01.570Z,27.70
2019-02-05T17:48:34.906Z,33.47
2019-02-05T17:51:08.264Z,38.13
2019-02-05T17:53:41.546Z,35.30
2019-02-05T17:56:14.874Z,30.50
2019-02-05T17:58:48.652Z,30.80
2019-02-05T18:01:21.941Z,34.17
2019-02-05T18:03:55.249Z,29.10
2019-02-05T18:06:28.635Z,32.17
2019-02-05T18:09:01.993Z,30.53
2019-02-05T18:11:35.386Z,27.00
2019-02-05T18:14:08.739Z,25.77
2019-02-05T18:16:45.132Z,25.60
2019-02-05T18:19:17.350Z,27.37
2019-02-05T18:21:50.843Z,25.03
2019-02-05T18:24:25.394Z,25.47
2019-02-05T18:26:58.695Z,25.07
2019-02-05T18:29:32.009Z,25.23
2019-02-05T18:32:05.969Z,26.37
2019-02-05T18:34:39.239Z,24.40
2019-02-05T18:37:13.888Z,23.33
2019-02-05T18:39:47.242Z,22.90
2019-02-05T18:42:20.691Z,25.17
2019-02-05T18:44:54.011Z,24.17
2019-02-05T18:47:27.325Z,23.30
2019-02-05T18:50:00.648Z,22.97
2019-02-05T18:52:34.046Z,25.93
2019-02-05T18:55:10.538Z,20.93
2019-02-05T18:57:44.203Z,24.20
2019-02-05T19:00:20.880Z,22.80
2019-02-05T19:02:54.318Z,24.67
2019-02-05T19:05:28.298Z,24.40
2019-02-05T19:08:01.901Z,22.63
2019-02-05T19:10:35.451Z,21.03
2019-02-05T19:13:08.870Z,23.33
2019-02-05T19:15:43.088Z,23.30
2019-02-05T19:18:16.445Z,21.80
2019-02-05T19:20:49.707Z,19.83
2019-02-05T19:23:23.099Z,22.73
2019-02-05T19:26:03.627Z,21.10
2019-02-05T19:28:37.114Z,22.87
2019-02-05T19:31:12.039Z,26.77
2019-02-05T19:33:46.951Z,20.90
2019-02-05T19:36:20.269Z,24.40
2019-02-05T19:38:53.638Z,23.17
2019-02-05T19:41:26.906Z,31.17
2019-02-05T19:44:00.214Z,26.37
2019-02-05T19:46:38.581Z,34.10
2019-02-05T19:49:21.797Z,33.30
2019-02-05T19:51:51.540Z,33.50
2019-02-05T19:54:25.438Z,29.50
2019-02-05T19:56:58.750Z,28.47
2019-02-05T19:59:32.464Z,32.03
2019-02-05T20:02:06.498Z,28.97
2019-02-05T20:04:39.903Z,25.60
2019-02-05T20:07:13.292Z,29.53
2019-02-05T20:09:46.618Z,30.40
2019-02-05T20:12:19.946Z,26.47
2019-02-05T20:14:53.609Z,30.63
2019-02-05T20:17:27.041Z,31.13
2019-02-05T20:20:00.385Z,28.43
2019-02-05T20:22:33.720Z,28.37
2019-02-05T20:25:09.976Z,25.73
2019-02-05T20:27:43.298Z,29.57
2019-02-05T20:30:24.272Z,27.93
2019-02-05T20:32:57.589Z,29.63
2019-02-05T20:35:30.896Z,29.90
2019-02-05T20:38:04.411Z,31.73
2019-02-05T20:40:37.727Z,30.23
2019-02-05T20:43:11.168Z,30.87
2019-02-05T20:45:44.477Z,28.97
2019-02-05T20:48:18.035Z,31.03
2019-02-05T20:50:51.477Z,30.17
2019-02-05T20:53:25.320Z,31.70
2019-02-05T20:56:00.574Z,29.87
2019-02-05T20:58:33.860Z,30.80
2019-02-05T21:01:07.525Z,30.57
2019-02-05T21:03:42.154Z,33.03
2019-02-05T21:06:15.434Z,36.17
2019-02-05T21:08:49.782Z,36.37
2019-02-05T21:11:23.067Z,33.83
2019-02-05T21:13:56.399Z,28.80
2019-02-05T21:16:29.679Z,28.20
2019-02-05T21:19:02.961Z,29.67
2019-02-05T21:21:36.263Z,29.13
2019-02-05T21:24:09.581Z,31.70
2019-02-05T21:26:42.949Z,35.27
2019-02-05T21:29:16.314Z,29.93
2019-02-05T21:31:49.572Z,25.87
2019-02-05T21:34:22.887Z,30.43
2019-02-05T21:36:56.450Z,29.47
2019-02-05T21:39:29.743Z,28.57
2019-02-05T21:42:03.035Z,25.77
2019-02-05T21:44:37.536Z,27.27
2019-02-05T21:47:10.864Z,24.73
2019-02-05T21:49:44.169Z,26.93
2019-02-05T21:52:18.555Z,27.43
2019-02-05T21:54:51.885Z,26.83
2019-02-05T21:57:25.167Z,29.10
2019-02-05T21:59:59.031Z,24.53
2019-02-05T22:02:32.372Z,29.00
2019-02-05T22:05:08.810Z,26.53
2019-02-05T22:07:42.192Z,27.63
2019-02-05T22:10:15.536Z,27.20
2019-02-05T22:12:48.862Z,31.77
2019-02-05T22:15:23.842Z,26.63
2019-02-05T22:17:57.167Z,30.27
2019-02-05T22:20:32.500Z,31.77
2019-02-05T22:23:05.868Z,30.90
2019-02-05T22:25:39.185Z,30.20
2019-02-05T22:28:12.953Z,28.53
2019-02-05T22:30:46.265Z,27.67
2019-02-05T22:33:19.557Z,24.93
2019-02-05T22:35:52.882Z,33.80
2019-02-05T22:38:26.157Z,35.27
2019-02-05T22:40:59.501Z,34.23
2019-02-05T22:43:32.789Z,33.83
2019-02-05T22:46:06.192Z,35.43
2019-02-05T22:48:39.863Z,38.10
2019-02-05T22:51:13.179Z,32.93
2019-02-05T22:53:46.489Z,31.03
2019-02-05T22:56:20.300Z,27.13
2019-02-05T22:58:54.062Z,26.27
2019-02-05T23:01:33.616Z,28.43
2019-02-05T23:04:09.991Z,28.77
2019-02-05T23:06:50.053Z,34.27
2019-02-05T23:09:41.748Z,30.40
2019-02-05T23:12:31.023Z,30.50
2019-02-05T23:15:13.167Z,35.93
2019-02-05T23:17:46.573Z,31.43
2019-02-05T23:20:19.976Z,31.27
2019-02-05T23:22:57.147Z,29.20
2019-02-05T23:25:31.010Z,28.23
2019-02-05T23:28:04.474Z,29.70
2019-02-05T23:30:37.856Z,33.23
2019-02-05T23:33:11.335Z,31.90
2019-02-05T23:35:44.654Z,32.97
2019-02-05T23:38:19.484Z,34.23
2019-02-05T23:40:52.793Z,30.70
2019-02-05T23:43:26.744Z,31.33
2019-02-05T23:46:01.647Z,32.70
2019-02-05T23:48:35.188Z,33.07
2019-02-05T23:51:08.568Z,29.40
2019-02-05T23:53:41.864Z,35.97
2019-02-05T23:56:25.369Z,34.43
2019-02-05T23:58:50.455Z,31.07
